createdAt,value
2022-10-18T00:09:15.958Z,19.90
2022-10-18T00:19:25.970Z,19.90
2022-10-18T00:29:35.108Z,19.88
2022-10-18T00:39:43.298Z,19.86
2022-10-18T00:49:49.707Z,19.85
2022-10-18T00:59:55.742Z,19.85
2022-10-18T01:10:02.061Z,19.82
2022-10-18T01:20:08.093Z,19.82
2022-10-18T01:30:14.304Z,19.82
2022-10-18T01:40:20.609Z,19.81
2022-10-18T01:50:26.388Z,19.81
2022-10-18T02:00:32.601Z,19.80
2022-10-18T02:10:38.923Z,19.78
2022-10-18T02:20:46.976Z,19.77
2022-10-18T02:30:53.394Z,19.77
2022-10-18T02:41:01.463Z,19.76
2022-10-18T02:51:07.704Z,19.76
2022-10-18T03:01:15.486Z,19.76
2022-10-18T03:11:21.812Z,19.75
2022-10-18T03:21:29.889Z,19.75
2022-10-18T03:31:36.191Z,19.75
2022-10-18T03:41:42.176Z,19.75
2022-10-18T03:51:48.110Z,19.75
2022-10-18T04:01:56.063Z,19.75
2022-10-18T04:12:02.101Z,19.73
2022-10-18T04:22:08.361Z,19.73
2022-10-18T04:32:14.960Z,19.72
2022-10-18T04:42:23.021Z,19.72
2022-10-18T04:52:29.476Z,19.73
2022-10-18T05:04:08.726Z,19.75
2022-10-18T05:14:13.962Z,19.78
2022-10-18T05:24:27.016Z,19.75
2022-10-18T05:34:33.433Z,19.77
2022-10-18T05:44:40.630Z,19.77
2022-10-18T05:54:46.306Z,19.77
2022-10-18T06:04:53.432Z,19.77
2022-10-18T06:14:58.902Z,19.78
2022-10-18T06:25:05.643Z,19.78
2022-10-18T06:35:10.966Z,19.80
2022-10-18T06:45:17.962Z,19.80
2022-10-18T06:55:23.489Z,19.84
2022-10-18T07:05:30.627Z,19.88
2022-10-18T07:15:36.317Z,19.88
2022-10-18T07:25:43.762Z,19.96
2022-10-18T07:35:49.041Z,19.96
2022-10-18T07:45:56.335Z,19.98
2022-10-18T07:56:04.558Z,19.95
2022-10-18T08:06:13.980Z,19.94
2022-10-18T08:16:19.937Z,19.94
2022-10-18T08:26:27.064Z,19.96
2022-10-18T08:36:32.764Z,19.96
2022-10-18T08:46:40.036Z,19.95
2022-10-18T08:56:45.796Z,19.95
2022-10-18T09:06:52.812Z,20.00
2022-10-18T09:16:58.398Z,20.00
2022-10-18T09:27:05.633Z,20.04
2022-10-18T09:37:11.294Z,20.04
2022-10-18T09:47:18.337Z,20.13
2022-10-18T09:57:24.028Z,20.20
2022-10-18T10:07:34.156Z,20.18
2022-10-18T10:17:41.156Z,20.17
2022-10-18T10:27:48.167Z,20.20
2022-10-18T10:37:53.720Z,20.22
2022-10-18T10:48:00.869Z,20.22
2022-10-18T10:58:06.208Z,20.20
2022-10-18T11:08:13.249Z,20.20
2022-10-18T11:18:19.032Z,20.21
2022-10-18T11:28:26.374Z,20.22
2022-10-18T11:38:32.044Z,20.22
2022-10-18T11:48:39.478Z,20.23
2022-10-18T11:58:45.094Z,20.30
2022-10-18T12:08:52.181Z,20.30
2022-10-18T12:18:57.807Z,20.36
2022-10-18T12:29:04.962Z,20.40
2022-10-18T12:39:10.475Z,20.40
2022-10-18T12:49:17.557Z,20.34
2022-10-18T12:59:23.242Z,20.34
2022-10-18T13:09:30.171Z,20.39
2022-10-18T13:19:35.890Z,20.48
2022-10-18T13:29:43.941Z,20.46
2022-10-18T13:39:50.033Z,20.46
2022-10-18T13:49:59.642Z,20.48
2022-10-18T14:00:06.136Z,20.57
2022-10-18T14:10:12.144Z,20.57
2022-10-18T14:20:18.816Z,20.62
2022-10-18T14:30:29.404Z,20.62
2022-10-18T14:40:36.711Z,20.63
2022-10-18T14:50:43.434Z,20.63
2022-10-18T15:00:48.758Z,20.55
2022-10-18T15:10:55.855Z,20.44
2022-10-18T15:21:01.065Z,20.44
2022-10-18T15:31:08.178Z,20.41
2022-10-18T15:41:13.593Z,20.40
2022-10-18T15:51:20.114Z,20.34
2022-10-18T16:01:25.669Z,20.30
2022-10-18T16:11:32.567Z,20.21
2022-10-18T16:21:38.147Z,20.18
2022-10-18T16:31:45.934Z,20.18
2022-10-18T16:41:52.231Z,20.12
2022-10-18T16:51:58.528Z,20.12
2022-10-18T17:02:04.740Z,20.08
2022-10-18T17:12:10.741Z,20.05
2022-10-18T17:22:16.712Z,20.03
2022-10-18T17:32:23.273Z,20.02
2022-10-18T17:42:29.256Z,19.99
2022-10-18T17:52:35.294Z,19.98
2022-10-18T18:02:42.214Z,19.92
2022-10-18T18:12:50.459Z,19.92
2022-10-18T18:22:56.863Z,19.90
2022-10-18T18:33:03.689Z,19.89
2022-10-18T18:43:22.616Z,19.89
2022-10-18T18:53:28.548Z,19.86
2022-10-18T19:03:35.405Z,19.85
2022-10-18T19:13:42.431Z,19.82
2022-10-18T19:23:48.105Z,19.82
2022-10-18T19:33:59.784Z,19.80
2022-10-18T19:44:05.751Z,19.81
2022-10-18T19:54:12.465Z,19.80
2022-10-18T20:04:17.980Z,19.80
2022-10-18T20:14:25.857Z,19.80
2022-10-18T20:24:32.134Z,19.78
2022-10-18T20:34:38.782Z,19.78
2022-10-18T20:44:44.196Z,19.75
2022-10-18T20:54:54.594Z,19.75
2022-10-18T21:05:00.383Z,19.75
2022-10-18T21:15:08.547Z,19.75
2022-10-18T21:25:14.878Z,19.75
2022-10-18T21:35:22.521Z,19.72
2022-10-18T21:45:28.595Z,19.71
2022-10-18T21:55:39.260Z,19.71
2022-10-18T22:05:44.904Z,19.70
2022-10-18T22:15:51.849Z,19.68
2022-10-18T22:25:57.396Z,19.68
2022-10-18T22:36:07.701Z,19.67
2022-10-18T22:46:13.263Z,19.67
2022-10-18T22:56:27.916Z,19.64
2022-10-18T23:06:33.528Z,19.64
2022-10-18T23:16:40.711Z,19.63
2022-10-18T23:26:46.476Z,19.60
2022-10-18T23:36:55.246Z,19.60
2022-10-18T23:47:01.338Z,19.58
2022-10-18T23:57:08.276Z,19.55
